sensor_id;sensor_type;location;lat;lon;timestamp;P1;durP1;ratioP1;P2;durP2;ratioP2
74162;SDS011;62515;52.758;5.076;2022-09-24T00:01:20;41.00;;;20.92;;
74162;SDS011;62515;52.758;5.076;2022-09-24T00:03:49;43.28;;;21.02;;
74162;SDS011;62515;52.758;5.076;2022-09-24T00:06:18;39.85;;;20.50;;
74162;SDS011;62515;52.758;5.076;2022-09-24T00:08:46;37.17;;;19.48;;
74162;SDS011;62515;52.758;5.076;2022-09-24T00:11:15;36.00;;;18.65;;
74162;SDS011;62515;52.758;5.076;2022-09-24T00:13:45;40.47;;;19.55;;
74162;SDS011;62515;52.758;5.076;2022-09-24T00:16:13;36.00;;;19.30;;
74162;SDS011;62515;52.758;5.076;2022-09-24T00:18:41;39.03;;;20.55;;
74162;SDS011;62515;52.758;5.076;2022-09-24T00:21:12;35.70;;;16.65;;
74162;SDS011;62515;52.758;5.076;2022-09-24T00:23:40;37.55;;;18.80;;
74162;SDS011;62515;52.758;5.076;2022-09-24T00:26:10;33.47;;;17.23;;
74162;SDS011;62515;52.758;5.076;2022-09-24T00:28:55;40.40;;;19.52;;
74162;SDS011;62515;52.758;5.076;2022-09-24T00:31:22;37.45;;;19.55;;
74162;SDS011;62515;52.758;5.076;2022-09-24T00:33:50;34.42;;;19.50;;
74162;SDS011;62515;52.758;5.076;2022-09-24T00:36:17;39.08;;;19.00;;
74162;SDS011;62515;52.758;5.076;2022-09-24T00:38:47;34.85;;;19.02;;
74162;SDS011;62515;52.758;5.076;2022-09-24T00:41:17;41.75;;;20.10;;
74162;SDS011;62515;52.758;5.076;2022-09-24T00:46:14;38.60;;;18.75;;
74162;SDS011;62515;52.758;5.076;2022-09-24T00:48:45;34.58;;;18.65;;
74162;SDS011;62515;52.758;5.076;2022-09-24T00:51:14;38.30;;;20.02;;
74162;SDS011;62515;52.758;5.076;2022-09-24T00:56:11;34.67;;;17.85;;
74162;SDS011;62515;52.758;5.076;2022-09-24T00:58:44;37.67;;;19.55;;
74162;SDS011;62515;52.758;5.076;2022-09-24T01:01:15;36.47;;;18.65;;
74162;SDS011;62515;52.758;5.076;2022-09-24T01:03:44;39.10;;;19.30;;
74162;SDS011;62515;52.758;5.076;2022-09-24T01:06:13;38.42;;;19.75;;
74162;SDS011;62515;52.758;5.076;2022-09-24T01:08:40;35.00;;;17.58;;
74162;SDS011;62515;52.758;5.076;2022-09-24T01:11:13;39.05;;;19.60;;
74162;SDS011;62515;52.758;5.076;2022-09-24T01:14:01;36.80;;;20.00;;
74162;SDS011;62515;52.758;5.076;2022-09-24T01:16:42;32.58;;;17.77;;
74162;SDS011;62515;52.758;5.076;2022-09-24T01:19:17;33.40;;;19.00;;
74162;SDS011;62515;52.758;5.076;2022-09-24T01:22:03;37.70;;;18.13;;
74162;SDS011;62515;52.758;5.076;2022-09-24T01:27:36;36.35;;;19.33;;
74162;SDS011;62515;52.758;5.076;2022-09-24T01:30:16;34.08;;;18.73;;
74162;SDS011;62515;52.758;5.076;2022-09-24T01:32:44;38.50;;;20.17;;
74162;SDS011;62515;52.758;5.076;2022-09-24T01:35:15;35.22;;;19.45;;
74162;SDS011;62515;52.758;5.076;2022-09-24T01:37:48;42.30;;;20.83;;
74162;SDS011;62515;52.758;5.076;2022-09-24T01:40:19;39.72;;;20.17;;
74162;SDS011;62515;52.758;5.076;2022-09-24T01:42:49;40.63;;;20.85;;
74162;SDS011;62515;52.758;5.076;2022-09-24T01:45:19;43.28;;;20.30;;
74162;SDS011;62515;52.758;5.076;2022-09-24T01:47:47;45.92;;;20.70;;
74162;SDS011;62515;52.758;5.076;2022-09-24T01:50:15;43.08;;;20.58;;
74162;SDS011;62515;52.758;5.076;2022-09-24T01:52:44;46.53;;;21.10;;
74162;SDS011;62515;52.758;5.076;2022-09-24T01:55:16;40.72;;;19.88;;
74162;SDS011;62515;52.758;5.076;2022-09-24T01:57:47;40.58;;;19.95;;
74162;SDS011;62515;52.758;5.076;2022-09-24T02:00:18;40.55;;;20.13;;
74162;SDS011;62515;52.758;5.076;2022-09-24T02:02:48;48.83;;;22.48;;
74162;SDS011;62515;52.758;5.076;2022-09-24T02:05:22;47.97;;;21.98;;
74162;SDS011;62515;52.758;5.076;2022-09-24T02:07:54;50.47;;;23.55;;
74162;SDS011;62515;52.758;5.076;2022-09-24T02:10:29;56.17;;;24.45;;
74162;SDS011;62515;52.758;5.076;2022-09-24T02:13:01;48.22;;;21.40;;
74162;SDS011;62515;52.758;5.076;2022-09-24T02:15:33;57.72;;;23.27;;
74162;SDS011;62515;52.758;5.076;2022-09-24T02:18:03;63.85;;;23.67;;
74162;SDS011;62515;52.758;5.076;2022-09-24T02:20:33;67.25;;;23.85;;
74162;SDS011;62515;52.758;5.076;2022-09-24T02:23:03;64.72;;;24.88;;
74162;SDS011;62515;52.758;5.076;2022-09-24T02:28:03;69.10;;;23.90;;
74162;SDS011;62515;52.758;5.076;2022-09-24T02:30:29;57.25;;;22.52;;
74162;SDS011;62515;52.758;5.076;2022-09-24T02:33:03;57.08;;;20.92;;
74162;SDS011;62515;52.758;5.076;2022-09-24T02:35:53;45.10;;;17.52;;
74162;SDS011;62515;52.758;5.076;2022-09-24T02:38:20;44.00;;;16.92;;
74162;SDS011;62515;52.758;5.076;2022-09-24T02:40:48;36.67;;;10.77;;
74162;SDS011;62515;52.758;5.076;2022-09-24T02:43:16;20.40;;;7.03;;
74162;SDS011;62515;52.758;5.076;2022-09-24T02:45:44;14.23;;;3.55;;
74162;SDS011;62515;52.758;5.076;2022-09-24T02:48:11;15.40;;;3.30;;
74162;SDS011;62515;52.758;5.076;2022-09-24T02:50:37;11.35;;;3.30;;
74162;SDS011;62515;52.758;5.076;2022-09-24T02:53:04;12.90;;;3.08;;
74162;SDS011;62515;52.758;5.076;2022-09-24T02:55:31;8.02;;;3.03;;
74162;SDS011;62515;52.758;5.076;2022-09-24T02:57:58;10.45;;;3.33;;
74162;SDS011;62515;52.758;5.076;2022-09-24T03:00:25;13.85;;;3.53;;
74162;SDS011;62515;52.758;5.076;2022-09-24T03:02:55;7.68;;;2.13;;
74162;SDS011;62515;52.758;5.076;2022-09-24T03:05:22;12.07;;;3.08;;
74162;SDS011;62515;52.758;5.076;2022-09-24T03:07:49;11.35;;;2.55;;
74162;SDS011;62515;52.758;5.076;2022-09-24T03:10:16;11.05;;;3.10;;
74162;SDS011;62515;52.758;5.076;2022-09-24T03:12:43;12.00;;;3.20;;
74162;SDS011;62515;52.758;5.076;2022-09-24T03:15:10;13.40;;;3.42;;
74162;SDS011;62515;52.758;5.076;2022-09-24T03:17:37;18.17;;;3.40;;
74162;SDS011;62515;52.758;5.076;2022-09-24T03:20:06;16.45;;;3.30;;
74162;SDS011;62515;52.758;5.076;2022-09-24T03:22:33;19.42;;;3.38;;
74162;SDS011;62515;52.758;5.076;2022-09-24T03:25:00;14.20;;;3.35;;
74162;SDS011;62515;52.758;5.076;2022-09-24T03:27:28;15.00;;;3.55;;
74162;SDS011;62515;52.758;5.076;2022-09-24T03:29:55;14.02;;;3.20;;
74162;SDS011;62515;52.758;5.076;2022-09-24T03:32:41;10.45;;;3.67;;
74162;SDS011;62515;52.758;5.076;2022-09-24T03:35:09;13.35;;;4.10;;
74162;SDS011;62515;52.758;5.076;2022-09-24T03:37:37;12.05;;;3.45;;
74162;SDS011;62515;52.758;5.076;2022-09-24T03:40:04;9.95;;;3.65;;
74162;SDS011;62515;52.758;5.076;2022-09-24T03:45:00;11.30;;;2.92;;
74162;SDS011;62515;52.758;5.076;2022-09-24T03:47:27;23.77;;;3.67;;
74162;SDS011;62515;52.758;5.076;2022-09-24T03:49:54;11.70;;;2.60;;
74162;SDS011;62515;52.758;5.076;2022-09-24T03:52:23;14.77;;;3.20;;
74162;SDS011;62515;52.758;5.076;2022-09-24T03:54:50;12.85;;;2.53;;
74162;SDS011;62515;52.758;5.076;2022-09-24T03:57:17;13.02;;;3.03;;
74162;SDS011;62515;52.758;5.076;2022-09-24T03:59:44;13.48;;;3.25;;
74162;SDS011;62515;52.758;5.076;2022-09-24T04:02:12;18.92;;;4.13;;
74162;SDS011;62515;52.758;5.076;2022-09-24T04:04:38;7.15;;;2.38;;
74162;SDS011;62515;52.758;5.076;2022-09-24T04:07:05;19.35;;;2.90;;
74162;SDS011;62515;52.758;5.076;2022-09-24T04:09:33;23.08;;;3.22;;
74162;SDS011;62515;52.758;5.076;2022-09-24T04:12:00;14.23;;;3.72;;
74162;SDS011;62515;52.758;5.076;2022-09-24T04:14:27;13.77;;;2.58;;
74162;SDS011;62515;52.758;5.076;2022-09-24T04:16:54;16.38;;;3.25;;
74162;SDS011;62515;52.758;5.076;2022-09-24T04:19:21;15.80;;;2.60;;
74162;SDS011;62515;52.758;5.076;2022-09-24T04:21:48;13.75;;;2.53;;
74162;SDS011;62515;52.758;5.076;2022-09-24T04:24:15;10.25;;;2.22;;
74162;SDS011;62515;52.758;5.076;2022-09-24T04:26:43;16.10;;;3.05;;
74162;SDS011;62515;52.758;5.076;2022-09-24T04:29:10;12.57;;;3.22;;
74162;SDS011;62515;52.758;5.076;2022-09-24T04:31:39;9.85;;;1.95;;
74162;SDS011;62515;52.758;5.076;2022-09-24T04:34:06;12.85;;;2.75;;
74162;SDS011;62515;52.758;5.076;2022-09-24T04:36:34;14.27;;;2.70;;
74162;SDS011;62515;52.758;5.076;2022-09-24T04:39:00;9.88;;;2.10;;
74162;SDS011;62515;52.758;5.076;2022-09-24T04:41:29;7.93;;;2.28;;
74162;SDS011;62515;52.758;5.076;2022-09-24T04:43:57;17.73;;;2.45;;
74162;SDS011;62515;52.758;5.076;2022-09-24T04:46:24;14.38;;;2.35;;
74162;SDS011;62515;52.758;5.076;2022-09-24T04:48:51;11.07;;;2.42;;
74162;SDS011;62515;52.758;5.076;2022-09-24T04:51:18;11.60;;;2.88;;
74162;SDS011;62515;52.758;5.076;2022-09-24T04:53:46;16.30;;;2.75;;
74162;SDS011;62515;52.758;5.076;2022-09-24T04:56:16;13.43;;;1.55;;
74162;SDS011;62515;52.758;5.076;2022-09-24T04:58:43;12.82;;;2.33;;
74162;SDS011;62515;52.758;5.076;2022-09-24T05:01:11;13.40;;;1.75;;
74162;SDS011;62515;52.758;5.076;2022-09-24T05:03:38;11.02;;;1.60;;
74162;SDS011;62515;52.758;5.076;2022-09-24T05:06:06;13.32;;;1.80;;
74162;SDS011;62515;52.758;5.076;2022-09-24T05:08:32;12.88;;;1.98;;
74162;SDS011;62515;52.758;5.076;2022-09-24T05:10:59;10.13;;;2.53;;
74162;SDS011;62515;52.758;5.076;2022-09-24T05:13:27;14.82;;;2.45;;
74162;SDS011;62515;52.758;5.076;2022-09-24T05:15:54;13.90;;;2.40;;
74162;SDS011;62515;52.758;5.076;2022-09-24T05:18:22;11.65;;;1.85;;
74162;SDS011;62515;52.758;5.076;2022-09-24T05:20:49;9.25;;;1.58;;
74162;SDS011;62515;52.758;5.076;2022-09-24T05:23:16;9.18;;;1.60;;
74162;SDS011;62515;52.758;5.076;2022-09-24T05:25:43;11.93;;;1.67;;
74162;SDS011;62515;52.758;5.076;2022-09-24T05:28:29;12.68;;;1.85;;
74162;SDS011;62515;52.758;5.076;2022-09-24T05:30:58;12.43;;;1.95;;
74162;SDS011;62515;52.758;5.076;2022-09-24T05:33:27;12.48;;;1.80;;
74162;SDS011;62515;52.758;5.076;2022-09-24T05:35:55;14.40;;;2.10;;
74162;SDS011;62515;52.758;5.076;2022-09-24T05:38:23;7.47;;;1.98;;
74162;SDS011;62515;52.758;5.076;2022-09-24T05:40:50;11.93;;;2.38;;
74162;SDS011;62515;52.758;5.076;2022-09-24T05:43:17;4.60;;;1.80;;
74162;SDS011;62515;52.758;5.076;2022-09-24T05:45:47;9.43;;;1.83;;
74162;SDS011;62515;52.758;5.076;2022-09-24T05:48:16;13.90;;;1.83;;
74162;SDS011;62515;52.758;5.076;2022-09-24T05:50:44;10.00;;;2.28;;
74162;SDS011;62515;52.758;5.076;2022-09-24T05:53:11;14.25;;;2.17;;
74162;SDS011;62515;52.758;5.076;2022-09-24T05:55:38;12.27;;;1.90;;
74162;SDS011;62515;52.758;5.076;2022-09-24T05:58:05;10.65;;;1.92;;
74162;SDS011;62515;52.758;5.076;2022-09-24T06:00:35;10.73;;;2.28;;
74162;SDS011;62515;52.758;5.076;2022-09-24T06:03:03;7.38;;;1.73;;
74162;SDS011;62515;52.758;5.076;2022-09-24T06:05:32;11.05;;;2.22;;
74162;SDS011;62515;52.758;5.076;2022-09-24T06:08:02;8.32;;;1.70;;
74162;SDS011;62515;52.758;5.076;2022-09-24T06:10:29;10.27;;;1.55;;
74162;SDS011;62515;52.758;5.076;2022-09-24T06:12:56;18.10;;;2.08;;
74162;SDS011;62515;52.758;5.076;2022-09-24T06:15:23;7.30;;;1.17;;
74162;SDS011;62515;52.758;5.076;2022-09-24T06:17:52;9.23;;;1.60;;
74162;SDS011;62515;52.758;5.076;2022-09-24T06:20:19;8.35;;;1.55;;
74162;SDS011;62515;52.758;5.076;2022-09-24T06:22:46;11.52;;;1.55;;
74162;SDS011;62515;52.758;5.076;2022-09-24T06:25:15;7.80;;;1.20;;
74162;SDS011;62515;52.758;5.076;2022-09-24T06:27:41;11.70;;;1.63;;
74162;SDS011;62515;52.758;5.076;2022-09-24T06:30:08;11.45;;;2.00;;
74162;SDS011;62515;52.758;5.076;2022-09-24T06:32:37;8.68;;;1.50;;
74162;SDS011;62515;52.758;5.076;2022-09-24T06:35:04;9.27;;;1.52;;
74162;SDS011;62515;52.758;5.076;2022-09-24T06:37:32;12.95;;;1.60;;
74162;SDS011;62515;52.758;5.076;2022-09-24T06:39:59;12.90;;;1.80;;
74162;SDS011;62515;52.758;5.076;2022-09-24T06:42:27;10.38;;;1.42;;
74162;SDS011;62515;52.758;5.076;2022-09-24T06:44:54;8.13;;;1.27;;
74162;SDS011;62515;52.758;5.076;2022-09-24T06:47:21;7.43;;;1.75;;
74162;SDS011;62515;52.758;5.076;2022-09-24T06:49:49;8.77;;;1.35;;
74162;SDS011;62515;52.758;5.076;2022-09-24T06:52:16;8.45;;;1.30;;
74162;SDS011;62515;52.758;5.076;2022-09-24T06:54:43;13.15;;;2.13;;
74162;SDS011;62515;52.758;5.076;2022-09-24T06:57:09;10.45;;;1.80;;
74162;SDS011;62515;52.758;5.076;2022-09-24T06:59:38;7.55;;;1.30;;
74162;SDS011;62515;52.758;5.076;2022-09-24T07:02:04;8.15;;;1.48;;
74162;SDS011;62515;52.758;5.076;2022-09-24T07:04:31;6.20;;;1.42;;
74162;SDS011;62515;52.758;5.076;2022-09-24T07:06:58;6.30;;;1.38;;
74162;SDS011;62515;52.758;5.076;2022-09-24T07:09:44;12.27;;;1.70;;
74162;SDS011;62515;52.758;5.076;2022-09-24T07:12:10;8.68;;;1.42;;
74162;SDS011;62515;52.758;5.076;2022-09-24T07:14:38;9.68;;;1.70;;
74162;SDS011;62515;52.758;5.076;2022-09-24T07:17:05;10.35;;;1.45;;
74162;SDS011;62515;52.758;5.076;2022-09-24T07:19:32;5.55;;;1.25;;
74162;SDS011;62515;52.758;5.076;2022-09-24T07:21:59;14.38;;;1.70;;
74162;SDS011;62515;52.758;5.076;2022-09-24T07:24:26;5.80;;;1.35;;
74162;SDS011;62515;52.758;5.076;2022-09-24T07:26:52;7.85;;;2.65;;
74162;SDS011;62515;52.758;5.076;2022-09-24T07:29:19;4.40;;;1.30;;
74162;SDS011;62515;52.758;5.076;2022-09-24T07:31:47;6.78;;;1.20;;
74162;SDS011;62515;52.758;5.076;2022-09-24T07:34:14;8.90;;;1.73;;
74162;SDS011;62515;52.758;5.076;2022-09-24T07:36:42;11.57;;;1.70;;
74162;SDS011;62515;52.758;5.076;2022-09-24T07:39:08;10.15;;;1.50;;
74162;SDS011;62515;52.758;5.076;2022-09-24T07:41:35;7.55;;;1.20;;
74162;SDS011;62515;52.758;5.076;2022-09-24T07:44:07;7.88;;;1.40;;
74162;SDS011;62515;52.758;5.076;2022-09-24T07:46:35;4.32;;;0.90;;
74162;SDS011;62515;52.758;5.076;2022-09-24T07:49:03;7.68;;;1.48;;
74162;SDS011;62515;52.758;5.076;2022-09-24T07:51:30;10.30;;;1.77;;
74162;SDS011;62515;52.758;5.076;2022-09-24T07:53:57;7.55;;;1.52;;
74162;SDS011;62515;52.758;5.076;2022-09-24T07:56:24;7.03;;;1.48;;
74162;SDS011;62515;52.758;5.076;2022-09-24T07:58:51;6.43;;;1.50;;
74162;SDS011;62515;52.758;5.076;2022-09-24T08:01:19;9.23;;;1.23;;
74162;SDS011;62515;52.758;5.076;2022-09-24T08:03:46;12.23;;;2.10;;
74162;SDS011;62515;52.758;5.076;2022-09-24T08:06:14;6.50;;;1.52;;
74162;SDS011;62515;52.758;5.076;2022-09-24T08:08:41;7.25;;;1.20;;
74162;SDS011;62515;52.758;5.076;2022-09-24T08:11:09;10.52;;;1.27;;
74162;SDS011;62515;52.758;5.076;2022-09-24T08:13:42;6.00;;;1.02;;
74162;SDS011;62515;52.758;5.076;2022-09-24T08:16:10;5.95;;;1.08;;
74162;SDS011;62515;52.758;5.076;2022-09-24T08:18:38;5.90;;;2.00;;
74162;SDS011;62515;52.758;5.076;2022-09-24T08:21:06;7.95;;;2.03;;
74162;SDS011;62515;52.758;5.076;2022-09-24T08:23:37;8.18;;;1.20;;
74162;SDS011;62515;52.758;5.076;2022-09-24T08:26:08;7.30;;;1.23;;
74162;SDS011;62515;52.758;5.076;2022-09-24T08:28:35;11.48;;;1.42;;
74162;SDS011;62515;52.758;5.076;2022-09-24T08:31:04;4.28;;;1.17;;
74162;SDS011;62515;52.758;5.076;2022-09-24T08:33:36;6.45;;;1.45;;
74162;SDS011;62515;52.758;5.076;2022-09-24T08:36:04;8.15;;;1.75;;
74162;SDS011;62515;52.758;5.076;2022-09-24T08:38:33;9.50;;;1.75;;
74162;SDS011;62515;52.758;5.076;2022-09-24T08:41:03;5.40;;;1.10;;
74162;SDS011;62515;52.758;5.076;2022-09-24T08:43:45;6.68;;;1.00;;
74162;SDS011;62515;52.758;5.076;2022-09-24T08:46:20;8.70;;;1.27;;
74162;SDS011;62515;52.758;5.076;2022-09-24T08:49:11;6.35;;;1.25;;
74162;SDS011;62515;52.758;5.076;2022-09-24T08:51:43;7.32;;;1.30;;
74162;SDS011;62515;52.758;5.076;2022-09-24T08:54:17;4.68;;;0.90;;
74162;SDS011;62515;52.758;5.076;2022-09-24T08:56:47;11.98;;;1.58;;
74162;SDS011;62515;52.758;5.076;2022-09-24T08:59:21;6.30;;;1.13;;
74162;SDS011;62515;52.758;5.076;2022-09-24T09:01:54;4.70;;;0.90;;
74162;SDS011;62515;52.758;5.076;2022-09-24T09:04:32;5.45;;;1.00;;
74162;SDS011;62515;52.758;5.076;2022-09-24T09:07:08;10.43;;;1.45;;
74162;SDS011;62515;52.758;5.076;2022-09-24T09:09:43;4.43;;;0.93;;
74162;SDS011;62515;52.758;5.076;2022-09-24T09:12:16;7.00;;;1.30;;
74162;SDS011;62515;52.758;5.076;2022-09-24T09:14:48;7.05;;;1.00;;
74162;SDS011;62515;52.758;5.076;2022-09-24T09:17:23;10.23;;;1.25;;
74162;SDS011;62515;52.758;5.076;2022-09-24T09:19:57;5.68;;;1.20;;
74162;SDS011;62515;52.758;5.076;2022-09-24T09:22:28;6.05;;;1.05;;
74162;SDS011;62515;52.758;5.076;2022-09-24T09:25:02;5.90;;;1.85;;
74162;SDS011;62515;52.758;5.076;2022-09-24T09:27:37;5.05;;;1.40;;
74162;SDS011;62515;52.758;5.076;2022-09-24T09:30:05;6.55;;;1.10;;
74162;SDS011;62515;52.758;5.076;2022-09-24T09:35:16;4.28;;;0.98;;
74162;SDS011;62515;52.758;5.076;2022-09-24T09:37:51;5.10;;;1.05;;
74162;SDS011;62515;52.758;5.076;2022-09-24T09:40:24;5.60;;;0.90;;
74162;SDS011;62515;52.758;5.076;2022-09-24T09:42:59;6.38;;;1.02;;
74162;SDS011;62515;52.758;5.076;2022-09-24T09:45:29;5.55;;;1.10;;
74162;SDS011;62515;52.758;5.076;2022-09-24T09:48:00;5.18;;;0.90;;
74162;SDS011;62515;52.758;5.076;2022-09-24T09:50:29;7.93;;;1.20;;
74162;SDS011;62515;52.758;5.076;2022-09-24T09:53:01;5.22;;;1.30;;
74162;SDS011;62515;52.758;5.076;2022-09-24T09:55:30;7.45;;;1.63;;
74162;SDS011;62515;52.758;5.076;2022-09-24T09:58:07;5.60;;;1.20;;
74162;SDS011;62515;52.758;5.076;2022-09-24T10:00:41;4.55;;;1.08;;
74162;SDS011;62515;52.758;5.076;2022-09-24T10:03:19;7.07;;;0.98;;
74162;SDS011;62515;52.758;5.076;2022-09-24T10:05:50;7.78;;;1.30;;
74162;SDS011;62515;52.758;5.076;2022-09-24T10:08:20;5.88;;;1.38;;
74162;SDS011;62515;52.758;5.076;2022-09-24T10:10:51;8.05;;;1.30;;
74162;SDS011;62515;52.758;5.076;2022-09-24T10:13:22;5.60;;;0.88;;
74162;SDS011;62515;52.758;5.076;2022-09-24T10:15:50;4.85;;;1.00;;
74162;SDS011;62515;52.758;5.076;2022-09-24T10:18:26;6.20;;;1.17;;
74162;SDS011;62515;52.758;5.076;2022-09-24T10:20:56;6.93;;;0.88;;
74162;SDS011;62515;52.758;5.076;2022-09-24T10:23:28;6.03;;;1.40;;
74162;SDS011;62515;52.758;5.076;2022-09-24T10:26:00;8.77;;;1.33;;
74162;SDS011;62515;52.758;5.076;2022-09-24T10:28:29;4.47;;;1.15;;
74162;SDS011;62515;52.758;5.076;2022-09-24T10:31:18;4.75;;;0.80;;
74162;SDS011;62515;52.758;5.076;2022-09-24T10:33:47;7.47;;;1.30;;
74162;SDS011;62515;52.758;5.076;2022-09-24T10:36:18;6.45;;;1.20;;
74162;SDS011;62515;52.758;5.076;2022-09-24T10:38:47;4.78;;;1.00;;
74162;SDS011;62515;52.758;5.076;2022-09-24T10:41:15;7.05;;;1.55;;
74162;SDS011;62515;52.758;5.076;2022-09-24T10:43:50;4.25;;;0.93;;
74162;SDS011;62515;52.758;5.076;2022-09-24T10:46:25;3.65;;;0.80;;
74162;SDS011;62515;52.758;5.076;2022-09-24T10:49:21;3.40;;;0.90;;
74162;SDS011;62515;52.758;5.076;2022-09-24T10:51:59;5.20;;;0.90;;
74162;SDS011;62515;52.758;5.076;2022-09-24T10:54:39;10.27;;;1.10;;
74162;SDS011;62515;52.758;5.076;2022-09-24T10:57:18;4.82;;;1.20;;
74162;SDS011;62515;52.758;5.076;2022-09-24T10:59:56;6.25;;;1.10;;
74162;SDS011;62515;52.758;5.076;2022-09-24T11:05:34;4.50;;;1.05;;
74162;SDS011;62515;52.758;5.076;2022-09-24T11:08:11;4.70;;;0.82;;
74162;SDS011;62515;52.758;5.076;2022-09-24T11:10:59;2.78;;;0.70;;
74162;SDS011;62515;52.758;5.076;2022-09-24T11:13:39;7.90;;;1.00;;
74162;SDS011;62515;52.758;5.076;2022-09-24T11:16:23;6.85;;;0.88;;
74162;SDS011;62515;52.758;5.076;2022-09-24T11:19:06;5.80;;;1.00;;
74162;SDS011;62515;52.758;5.076;2022-09-24T11:21:48;8.95;;;1.25;;
74162;SDS011;62515;52.758;5.076;2022-09-24T11:24:32;6.22;;;1.00;;
74162;SDS011;62515;52.758;5.076;2022-09-24T11:27:12;4.22;;;0.95;;
74162;SDS011;62515;52.758;5.076;2022-09-24T11:29:57;4.72;;;0.90;;
74162;SDS011;62515;52.758;5.076;2022-09-24T11:32:35;4.97;;;1.25;;
74162;SDS011;62515;52.758;5.076;2022-09-24T11:35:23;5.75;;;1.10;;
74162;SDS011;62515;52.758;5.076;2022-09-24T11:38:13;8.75;;;1.20;;
74162;SDS011;62515;52.758;5.076;2022-09-24T11:40:47;6.22;;;1.10;;
74162;SDS011;62515;52.758;5.076;2022-09-24T11:46:22;3.05;;;0.85;;
74162;SDS011;62515;52.758;5.076;2022-09-24T11:49:19;4.40;;;1.10;;
74162;SDS011;62515;52.758;5.076;2022-09-24T11:51:58;5.18;;;0.90;;
74162;SDS011;62515;52.758;5.076;2022-09-24T11:54:31;4.15;;;0.93;;
74162;SDS011;62515;52.758;5.076;2022-09-24T11:57:04;5.00;;;1.02;;
74162;SDS011;62515;52.758;5.076;2022-09-24T11:59:38;3.92;;;0.70;;
74162;SDS011;62515;52.758;5.076;2022-09-24T12:02:13;3.95;;;0.90;;
74162;SDS011;62515;52.758;5.076;2022-09-24T12:04:52;7.35;;;1.23;;
74162;SDS011;62515;52.758;5.076;2022-09-24T12:07:25;4.40;;;1.23;;
74162;SDS011;62515;52.758;5.076;2022-09-24T12:09:57;5.93;;;0.88;;
74162;SDS011;62515;52.758;5.076;2022-09-24T12:12:29;5.72;;;0.82;;
74162;SDS011;62515;52.758;5.076;2022-09-24T12:14:59;4.95;;;0.90;;
74162;SDS011;62515;52.758;5.076;2022-09-24T12:17:32;5.28;;;0.80;;
74162;SDS011;62515;52.758;5.076;2022-09-24T12:20:07;6.60;;;0.80;;
74162;SDS011;62515;52.758;5.076;2022-09-24T12:22:44;5.60;;;0.70;;
74162;SDS011;62515;52.758;5.076;2022-09-24T12:25:14;4.35;;;1.33;;
74162;SDS011;62515;52.758;5.076;2022-09-24T12:27:41;2.25;;;0.80;;
74162;SDS011;62515;52.758;5.076;2022-09-24T12:30:20;5.30;;;0.90;;
74162;SDS011;62515;52.758;5.076;2022-09-24T12:33:14;5.22;;;0.98;;
74162;SDS011;62515;52.758;5.076;2022-09-24T12:35:54;3.85;;;0.88;;
74162;SDS011;62515;52.758;5.076;2022-09-24T12:38:30;5.65;;;0.93;;
74162;SDS011;62515;52.758;5.076;2022-09-24T12:41:14;7.60;;;1.10;;
74162;SDS011;62515;52.758;5.076;2022-09-24T12:43:46;4.07;;;0.90;;
74162;SDS011;62515;52.758;5.076;2022-09-24T12:46:20;3.08;;;0.80;;
74162;SDS011;62515;52.758;5.076;2022-09-24T12:48:49;5.72;;;0.95;;
74162;SDS011;62515;52.758;5.076;2022-09-24T12:51:19;7.40;;;1.38;;
74162;SDS011;62515;52.758;5.076;2022-09-24T12:53:56;5.75;;;0.98;;
74162;SDS011;62515;52.758;5.076;2022-09-24T12:56:25;4.75;;;1.08;;
74162;SDS011;62515;52.758;5.076;2022-09-24T12:58:55;5.75;;;1.42;;
74162;SDS011;62515;52.758;5.076;2022-09-24T13:01:27;4.18;;;0.98;;
74162;SDS011;62515;52.758;5.076;2022-09-24T13:04:01;5.43;;;0.75;;
74162;SDS011;62515;52.758;5.076;2022-09-24T13:06:33;9.05;;;1.10;;
74162;SDS011;62515;52.758;5.076;2022-09-24T13:09:02;5.90;;;1.45;;
74162;SDS011;62515;52.758;5.076;2022-09-24T13:11:59;4.18;;;1.10;;
74162;SDS011;62515;52.758;5.076;2022-09-24T13:14:27;6.90;;;1.30;;
74162;SDS011;62515;52.758;5.076;2022-09-24T13:16:57;9.40;;;1.15;;
74162;SDS011;62515;52.758;5.076;2022-09-24T13:19:27;7.00;;;1.23;;
74162;SDS011;62515;52.758;5.076;2022-09-24T13:22:05;8.27;;;1.23;;
74162;SDS011;62515;52.758;5.076;2022-09-24T13:24:45;7.90;;;0.90;;
74162;SDS011;62515;52.758;5.076;2022-09-24T13:27:21;3.08;;;1.05;;
74162;SDS011;62515;52.758;5.076;2022-09-24T13:29:59;7.25;;;1.30;;
74162;SDS011;62515;52.758;5.076;2022-09-24T13:32:33;4.50;;;1.33;;
74162;SDS011;62515;52.758;5.076;2022-09-24T13:35:04;6.45;;;1.23;;
74162;SDS011;62515;52.758;5.076;2022-09-24T13:37:37;7.53;;;1.50;;
74162;SDS011;62515;52.758;5.076;2022-09-24T13:40:14;4.78;;;1.02;;
74162;SDS011;62515;52.758;5.076;2022-09-24T13:42:45;3.72;;;1.02;;
74162;SDS011;62515;52.758;5.076;2022-09-24T13:45:17;6.55;;;1.13;;
74162;SDS011;62515;52.758;5.076;2022-09-24T13:47:47;4.32;;;1.00;;
74162;SDS011;62515;52.758;5.076;2022-09-24T13:50:19;4.50;;;1.20;;
74162;SDS011;62515;52.758;5.076;2022-09-24T13:52:51;6.25;;;0.80;;
74162;SDS011;62515;52.758;5.076;2022-09-24T13:55:23;6.68;;;0.95;;
74162;SDS011;62515;52.758;5.076;2022-09-24T13:57:56;5.38;;;0.90;;
74162;SDS011;62515;52.758;5.076;2022-09-24T14:00:24;6.90;;;1.10;;
74162;SDS011;62515;52.758;5.076;2022-09-24T14:02:54;8.20;;;0.95;;
74162;SDS011;62515;52.758;5.076;2022-09-24T14:05:26;10.30;;;1.13;;
74162;SDS011;62515;52.758;5.076;2022-09-24T14:08:00;4.82;;;0.95;;
74162;SDS011;62515;52.758;5.076;2022-09-24T14:10:30;3.53;;;0.85;;
74162;SDS011;62515;52.758;5.076;2022-09-24T14:12:58;8.75;;;1.20;;
74162;SDS011;62515;52.758;5.076;2022-09-24T14:15:26;8.45;;;1.10;;
74162;SDS011;62515;52.758;5.076;2022-09-24T14:17:54;4.50;;;0.68;;
74162;SDS011;62515;52.758;5.076;2022-09-24T14:20:22;6.10;;;1.08;;
74162;SDS011;62515;52.758;5.076;2022-09-24T14:22:53;8.05;;;0.90;;
74162;SDS011;62515;52.758;5.076;2022-09-24T14:25:23;5.03;;;0.82;;
74162;SDS011;62515;52.758;5.076;2022-09-24T14:27:54;4.43;;;1.17;;
74162;SDS011;62515;52.758;5.076;2022-09-24T14:30:24;6.00;;;0.70;;
74162;SDS011;62515;52.758;5.076;2022-09-24T14:32:53;6.75;;;1.10;;
74162;SDS011;62515;52.758;5.076;2022-09-24T14:35:24;8.50;;;1.15;;
74162;SDS011;62515;52.758;5.076;2022-09-24T14:37:57;6.85;;;1.13;;
74162;SDS011;62515;52.758;5.076;2022-09-24T14:40:27;6.72;;;1.33;;
74162;SDS011;62515;52.758;5.076;2022-09-24T14:42:55;7.30;;;0.93;;
74162;SDS011;62515;52.758;5.076;2022-09-24T14:47:58;3.80;;;1.17;;
74162;SDS011;62515;52.758;5.076;2022-09-24T14:50:30;4.20;;;1.10;;
74162;SDS011;62515;52.758;5.076;2022-09-24T14:53:01;5.15;;;0.90;;
74162;SDS011;62515;52.758;5.076;2022-09-24T14:55:38;5.88;;;0.93;;
74162;SDS011;62515;52.758;5.076;2022-09-24T14:58:21;7.32;;;1.38;;
74162;SDS011;62515;52.758;5.076;2022-09-24T15:00:50;7.97;;;1.35;;
74162;SDS011;62515;52.758;5.076;2022-09-24T15:03:23;9.63;;;1.20;;
74162;SDS011;62515;52.758;5.076;2022-09-24T15:08:43;6.28;;;0.98;;
74162;SDS011;62515;52.758;5.076;2022-09-24T15:11:19;3.42;;;0.93;;
74162;SDS011;62515;52.758;5.076;2022-09-24T15:13:56;4.07;;;1.02;;
74162;SDS011;62515;52.758;5.076;2022-09-24T15:16:26;6.03;;;0.85;;
74162;SDS011;62515;52.758;5.076;2022-09-24T15:18:56;4.93;;;0.80;;
74162;SDS011;62515;52.758;5.076;2022-09-24T15:21:39;4.90;;;1.52;;
74162;SDS011;62515;52.758;5.076;2022-09-24T15:24:06;7.15;;;1.38;;
74162;SDS011;62515;52.758;5.076;2022-09-24T15:26:34;3.65;;;0.95;;
74162;SDS011;62515;52.758;5.076;2022-09-24T15:29:04;7.03;;;1.10;;
74162;SDS011;62515;52.758;5.076;2022-09-24T15:31:32;7.75;;;1.67;;